TimeMDT,TemperatureF,Dew PointF,Humidity,Sea Level PressureIn,VisibilityMPH,Wind Direction,Wind SpeedMPH,Gust SpeedMPH,PrecipitationIn,Events,Conditions,WindDirDegrees,DateUTC
12:00 AM,34,32,87,,,Calm,Calm,,,,,,2013-10-14 06:00:00
12:00 AM,34.3,31.6,90,-9999,-9999.0,Calm,Calm,-,N/A,,Unknown,0,2013-10-14 06:00:00
1:00 AM,33.4,31.1,91,-9999,-9999.0,Calm,Calm,-,N/A,,Unknown,0,2013-10-14 07:00:00
2:00 AM,32.0,29.8,92,-9999,-9999.0,Calm,Calm,-,N/A,,Unknown,0,2013-10-14 08:00:00
3:00 AM,31.6,29.8,93,-9999,-9999.0,Calm,Calm,-,N/A,,Unknown,0,2013-10-14 09:00:00
4:00 AM,27.9,26.2,94,-9999,-9999.0,Calm,Calm,-,N/A,,Unknown,0,2013-10-14 10:00:00
5:00 AM,24.8,23.0,93,-9999,-9999.0,SW,1.2,-,N/A,,Unknown,230,2013-10-14 11:00:00
6:00 AM,22,20,90,,,Calm,Calm,,,,,,2013-10-14 12:00:00
6:00 AM,22.1,20.3,93,-9999,-9999.0,Calm,Calm,-,N/A,,Unknown,0,2013-10-14 12:00:00
7:00 AM,21.0,19.4,93,-9999,-9999.0,Calm,Calm,-,N/A,,Unknown,0,2013-10-14 13:00:00
8:00 AM,19.9,18.1,93,-9999,-9999.0,SW,3.5,-,N/A,,Unknown,230,2013-10-14 14:00:00
9:00 AM,28.2,26.4,93,-9999,-9999.0,SW,3.5,-,N/A,,Unknown,220,2013-10-14 15:00:00
10:00 AM,36.9,30.2,77,-9999,-9999.0,SSW,5.8,-,N/A,,Unknown,210,2013-10-14 16:00:00
11:00 AM,42.1,29.3,61,-9999,-9999.0,SW,4.6,-,N/A,,Unknown,220,2013-10-14 17:00:00
12:00 PM,47,25,29,,,North,2.3,,,,,350,2013-10-14 18:00:00
12:00 PM,47.1,24.8,42,-9999,-9999.0,North,2.3,-,N/A,,Unknown,350,2013-10-14 18:00:00
1:00 PM,49.6,22.3,34,-9999,-9999.0,WNW,3.5,-,N/A,,Unknown,290,2013-10-14 19:00:00
2:00 PM,46.0,21.2,37,-9999,-9999.0,WSW,1.2,-,N/A,,Unknown,240,2013-10-14 20:00:00
3:00 PM,51.4,21.4,31,-9999,-9999.0,SW,2.3,-,N/A,,Unknown,230,2013-10-14 21:00:00
4:00 PM,50.2,21.7,33,-9999,-9999.0,North,1.2,-,N/A,,Unknown,10,2013-10-14 22:00:00
5:00 PM,51.4,21.9,32,-9999,-9999.0,NNW,2.3,-,N/A,,Unknown,330,2013-10-14 23:00:00
6:00 PM,46,24,29,,,ENE,6.9,,,,,70,2013-10-15 00:00:00
6:00 PM,45.9,23.9,42,-9999,-9999.0,ENE,6.9,-,N/A,,Unknown,70,2013-10-15 00:00:00
7:00 PM,38.1,23.0,55,-9999,-9999.0,ENE,1.2,-,N/A,,Unknown,60,2013-10-15 01:00:00
8:00 PM,31.1,23.0,72,-9999,-9999.0,SW,3.5,-,N/A,,Unknown,220,2013-10-15 02:00:00
9:00 PM,34.3,26.1,72,-9999,-9999.0,South,8.1,-,N/A,,Unknown,190,2013-10-15 03:00:00
10:00 PM,33.8,24.4,69,-9999,-9999.0,SSW,8.1,-,N/A,,Unknown,200,2013-10-15 04:00:00
11:00 PM,35.2,24.6,65,-9999,-9999.0,SSW,10.4,-,N/A,,Unknown,200,2013-10-15 05:00:00